Time;durP1;ratioP1;P1;durP2;ratioP2;P2;SDS_P1;SDS_P2;PMS_P1;PMS_P2;Temp;Humidity;BMP_temperature;BMP_pressure;BME280_temperature;BME280_humidity;BME280_pressure;Samples;Min_cycle;Max_cycle;Signal;HPM_P1;HPM_P2
2022/04/04 00:01:51;;;;;;;1.13;0.85;;;;;;;;;;6269772;22;20015;-95
2022/04/04 00:04:20;;;;;;;1.58;0.90;;;;;;;;;;6269147;22;20015;-95
2022/04/04 00:06:54;;;;;;;2.25;1.65;;;;;;;;;;6268707;22;20018;-95
2022/04/04 00:09:26;;;;;;;1.83;1.05;;;;;;;;;;6268331;22;20015;-95
2022/04/04 00:11:55;;;;;;;2.72;1.83;;;;;;;;;;6270187;22;20015;-95
2022/04/04 00:14:21;;;;;;;1.50;1.05;;;;;;;;;;6268385;22;20015;-96
2022/04/04 00:16:51;;;;;;;2.17;1.02;;;;;;;;;;6292072;22;20038;-95
2022/04/04 00:19:28;;;;;;;2.15;1.23;;;;;;;;;;6305496;22;20026;-95
2022/04/04 00:21:58;;;;;;;3.28;1.42;;;;;;;;;;6270233;22;20019;-95
2022/04/04 00:24:27;;;;;;;2.03;1.23;;;;;;;;;;6269285;22;20094;-96
2022/04/04 00:26:53;;;;;;;1.10;0.70;;;;;;;;;;6269660;22;20018;-95
2022/04/04 00:29:25;;;;;;;3.88;1.92;;;;;;;;;;6268515;22;20090;-94
2022/04/04 00:32:00;;;;;;;2.40;1.52;;;;;;;;;;6270430;22;20065;-95
2022/04/04 00:34:37;;;;;;;3.38;1.80;;;;;;;;;;6268612;22;20106;-95
2022/04/04 00:37:11;;;;;;;2.85;1.50;;;;;;;;;;6264570;22;20029;-96
2022/04/04 00:39:38;;;;;;;2.80;1.42;;;;;;;;;;6293889;22;20015;-96
2022/04/04 00:42:18;;;;;;;3.17;1.60;;;;;;;;;;6243564;22;20038;-96
2022/04/04 00:44:56;;;;;;;1.40;0.88;;;;;;;;;;6269837;22;20007;-96
2022/04/04 00:47:25;;;;;;;2.17;1.63;;;;;;;;;;6269132;22;20022;-95
2022/04/04 00:49:58;;;;;;;6.03;1.55;;;;;;;;;;6269708;22;20031;-92
2022/04/04 00:52:37;;;;;;;3.65;2.30;;;;;;;;;;6297438;22;20349;-94
2022/04/04 00:55:11;;;;;;;3.42;2.05;;;;;;;;;;6270389;22;20026;-95
2022/04/04 00:57:41;;;;;;;3.25;2.00;;;;;;;;;;6269282;22;20015;-96
2022/04/04 01:00:09;;;;;;;3.05;1.55;;;;;;;;;;6270187;22;20011;-95
2022/04/04 01:02:41;;;;;;;4.70;2.70;;;;;;;;;;6270001;22;20037;-95
2022/04/04 01:05:19;;;;;;;3.60;1.80;;;;;;;;;;6271782;22;20069;-95
2022/04/04 01:08:00;;;;;;;6.95;3.03;;;;;;;;;;6271740;22;20039;-95
2022/04/04 01:10:31;;;;;;;4.70;2.80;;;;;;;;;;6273328;22;20011;-96
2022/04/04 01:12:58;;;;;;;4.95;2.67;;;;;;;;;;6271387;22;20011;-95
2022/04/04 01:15:30;;;;;;;7.38;3.60;;;;;;;;;;6272270;22;20061;-96
2022/04/04 01:18:11;;;;;;;5.45;2.58;;;;;;;;;;6270301;22;20030;-96
2022/04/04 01:20:37;;;;;;;6.40;3.35;;;;;;;;;;6269115;22;20011;-96
2022/04/04 01:23:14;;;;;;;9.95;3.85;;;;;;;;;;6270311;22;20011;-95
2022/04/04 01:25:43;;;;;;;3.63;2.28;;;;;;;;;;6294935;22;20063;-95
2022/04/04 01:28:15;;;;;;;5.65;2.55;;;;;;;;;;6270425;22;20015;-94
2022/04/04 01:30:56;;;;;;;6.32;2.28;;;;;;;;;;6296456;22;20022;-96
2022/04/04 01:33:26;;;;;;;5.93;2.88;;;;;;;;;;6271938;22;20038;-95
2022/04/04 01:36:00;;;;;;;5.38;3.17;;;;;;;;;;6272478;22;20018;-96
2022/04/04 01:38:40;;;;;;;8.57;4.13;;;;;;;;;;6298610;22;20042;-94
2022/04/04 01:41:11;;;;;;;6.78;4.00;;;;;;;;;;6273088;22;20047;-95
2022/04/04 01:44:01;;;;;;;8.25;3.85;;;;;;;;;;6293305;22;20011;-96
2022/04/04 01:46:30;;;;;;;6.88;3.85;;;;;;;;;;6271855;22;20007;-96
2022/04/04 01:49:08;;;;;;;8.48;3.40;;;;;;;;;;6271110;22;20467;-94
2022/04/04 01:51:39;;;;;;;6.60;3.50;;;;;;;;;;6271265;22;20022;-93
2022/04/04 01:54:16;;;;;;;3.97;2.60;;;;;;;;;;6270544;22;20030;-95
2022/04/04 01:56:56;;;;;;;7.68;3.45;;;;;;;;;;6273571;22;20026;-95
2022/04/04 01:59:51;;;;;;;4.55;2.55;;;;;;;;;;6252234;22;20039;-95
2022/04/04 02:02:41;;;;;;;6.00;3.33;;;;;;;;;;6300433;22;20066;-96
2022/04/04 02:05:22;;;;;;;4.78;2.55;;;;;;;;;;6271840;22;20011;-95
2022/04/04 02:07:58;;;;;;;5.97;3.53;;;;;;;;;;6267473;22;20054;-96
2022/04/04 02:10:27;;;;;;;4.68;2.63;;;;;;;;;;6219295;22;20023;-95
2022/04/04 02:12:59;;;;;;;8.75;3.95;;;;;;;;;;6243196;22;20022;-95
2022/04/04 02:15:31;;;;;;;7.22;3.97;;;;;;;;;;6241274;22;20015;-94
2022/04/04 02:18:03;;;;;;;6.72;3.13;;;;;;;;;;6243394;22;20015;-95
2022/04/04 02:20:30;;;;;;;4.72;2.33;;;;;;;;;;6241833;22;20073;-95
2022/04/04 02:23:20;;;;;;;7.13;3.67;;;;;;;;;;6244423;22;20038;-96
2022/04/04 02:26:08;;;;;;;;;;;;;;;;;;6268951;22;20023;-95
2022/04/04 02:28:37;;;;;;;4.32;2.50;;;;;;;;;;6265198;22;19951;-95
2022/04/04 02:31:04;;;;;;;7.15;4.15;;;;;;;;;;6214412;22;20015;-96
2022/04/04 02:33:46;;;;;;;9.32;4.80;;;;;;;;;;6240623;22;20101;-94
2022/04/04 02:36:23;;;;;;;7.03;3.97;;;;;;;;;;6214055;22;20016;-96
2022/04/04 02:39:05;;;;;;;;;;;;;;;;;;;;;
2022/04/04 02:41:34;;;;;;;6.55;3.78;;;;;;;;;;6263667;22;20042;-95
2022/04/04 02:44:05;;;;;;;8.85;4.50;;;;;;;;;;6242787;22;20387;-94
2022/04/04 02:46:35;;;;;;;8.55;4.65;;;;;;;;;;6242262;22;20016;-95
2022/04/04 02:49:04;;;;;;;7.10;3.90;;;;;;;;;;6241962;22;20011;-96
2022/04/04 02:51:33;;;;;;;9.43;5.30;;;;;;;;;;6262123;22;20020;-96
2022/04/04 02:54:09;;;;;;;9.43;4.45;;;;;;;;;;6241997;22;20023;-95
2022/04/04 02:56:39;;;;;;;9.57;4.30;;;;;;;;;;6240909;22;20433;-96
2022/04/04 02:59:06;;;;;;;6.13;3.42;;;;;;;;;;6262164;22;20039;-95
2022/04/04 03:01:35;;;;;;;4.57;2.42;;;;;;;;;;6239200;22;20012;-96
2022/04/04 03:04:02;;;;;;;8.40;4.45;;;;;;;;;;6239758;22;20043;-96
2022/04/04 03:06:31;;;;;;;6.32;3.35;;;;;;;;;;6251826;22;20011;-94
2022/04/04 03:09:10;;;;;;;6.20;2.83;;;;;;;;;;6295762;22;20011;-95
2022/04/04 03:11:39;;;;;;;5.50;3.22;;;;;;;;;;6269665;22;20026;-96
2022/04/04 03:14:11;;;;;;;11.68;4.93;;;;;;;;;;6296230;22;20015;-95
2022/04/04 03:16:40;;;;;;;5.97;3.15;;;;;;;;;;6269731;22;20042;-93
2022/04/04 03:19:11;;;;;;;7.75;3.38;;;;;;;;;;6271362;22;20027;-95
2022/04/04 03:21:46;;;;;;;9.43;4.55;;;;;;;;;;6268408;22;20345;-95
2022/04/04 03:24:15;;;;;;;5.47;3.13;;;;;;;;;;6271000;22;20102;-94
2022/04/04 03:26:47;;;;;;;6.07;3.65;;;;;;;;;;6270509;22;20022;-95
2022/04/04 03:29:21;;;;;;;5.68;3.33;;;;;;;;;;6270177;22;20015;-95
2022/04/04 03:31:50;;;;;;;7.57;4.05;;;;;;;;;;6270692;22;20030;-95
2022/04/04 03:34:21;;;;;;;4.50;2.95;;;;;;;;;;6268770;22;20015;-95
2022/04/04 03:36:55;;;;;;;7.30;3.92;;;;;;;;;;6269067;22;20015;-96
2022/04/04 03:39:24;;;;;;;6.88;3.20;;;;;;;;;;6294899;22;20041;-94
2022/04/04 03:41:53;;;;;;;9.52;4.05;;;;;;;;;;6269116;22;20015;-96
2022/04/04 03:44:26;;;;;;;7.20;3.80;;;;;;;;;;6269948;22;20012;-95
2022/04/04 03:46:53;;;;;;;6.97;3.50;;;;;;;;;;6269992;22;20015;-94
2022/04/04 03:49:19;;;;;;;7.70;3.38;;;;;;;;;;6268540;22;20015;-95
2022/04/04 03:51:52;;;;;;;6.93;2.72;;;;;;;;;;6269487;22;20019;-95
2022/04/04 03:54:28;;;;;;;9.35;4.45;;;;;;;;;;6269149;22;20039;-94
2022/04/04 03:56:55;;;;;;;3.67;2.15;;;;;;;;;;6268720;22;20019;-95
2022/04/04 03:59:28;;;;;;;6.35;2.67;;;;;;;;;;6295026;22;20015;-94
2022/04/04 04:01:57;;;;;;;6.07;3.47;;;;;;;;;;6268246;22;20019;-93
2022/04/04 04:04:24;;;;;;;6.97;3.15;;;;;;;;;;6293676;22;20433;-94
2022/04/04 04:06:57;;;;;;;13.63;5.32;;;;;;;;;;6292974;22;20011;-94
2022/04/04 04:09:23;;;;;;;6.95;3.95;;;;;;;;;;6267711;22;20508;-94
2022/04/04 04:11:50;;;;;;;8.48;4.97;;;;;;;;;;6268446;22;20394;-95
2022/04/04 04:14:22;;;;;;;5.30;3.08;;;;;;;;;;6270803;22;20247;-95
2022/04/04 04:17:06;;;;;;;10.00;4.05;;;;;;;;;;6269657;22;20022;-95
2022/04/04 04:22:38;;;;;;;4.13;2.65;;;;;;;;;;6298492;22;20021;-95
2022/04/04 04:25:10;;;;;;;7.32;4.07;;;;;;;;;;6275120;22;20016;-95
2022/04/04 04:27:49;;;;;;;6.88;4.03;;;;;;;;;;6298360;22;20011;-96
2022/04/04 04:30:25;;;;;;;8.73;5.45;;;;;;;;;;6249577;22;20034;-96
2022/04/04 04:32:56;;;;;;;9.25;3.78;;;;;;;;;;6271430;22;20019;-94
2022/04/04 04:35:45;;;;;;;9.60;5.45;;;;;;;;;;6244443;22;20085;-91
2022/04/04 04:38:20;;;;;;;9.90;5.68;;;;;;;;;;6272631;22;20015;-95
2022/04/04 04:40:47;;;;;;;8.02;5.03;;;;;;;;;;6270559;22;20017;-96
2022/04/04 04:43:18;;;;;;;11.50;4.93;;;;;;;;;;6297146;22;20011;-94
2022/04/04 04:45:47;;;;;;;6.85;3.97;;;;;;;;;;6268964;22;20496;-96
2022/04/04 04:48:23;;;;;;;5.05;3.20;;;;;;;;;;6269158;22;20015;-96
2022/04/04 04:50:52;;;;;;;13.70;5.40;;;;;;;;;;6269101;22;20015;-95
2022/04/04 04:53:37;;;;;;;7.30;5.03;;;;;;;;;;6270573;22;20463;-95
2022/04/04 04:56:12;;;;;;;9.23;5.55;;;;;;;;;;6272444;22;20022;-95
2022/04/04 04:58:41;;;;;;;7.90;5.18;;;;;;;;;;6273010;22;20018;-96
2022/04/04 05:01:17;;;;;;;6.82;3.72;;;;;;;;;;6317900;22;20034;-96
2022/04/04 05:03:49;;;;;;;10.45;4.97;;;;;;;;;;6269557;22;20022;-93
2022/04/04 05:06:23;;;;;;;6.57;4.05;;;;;;;;;;6297133;22;20011;-95
2022/04/04 05:08:59;;;;;;;14.00;5.75;;;;;;;;;;6271176;22;20016;-94
2022/04/04 05:11:37;;;;;;;7.07;4.47;;;;;;;;;;6273751;22;20015;-96
2022/04/04 05:14:18;;;;;;;4.97;2.80;;;;;;;;;;6273809;22;20019;-95
2022/04/04 05:16:50;;;;;;;9.63;4.15;;;;;;;;;;6271159;22;20019;-94
2022/04/04 05:19:20;;;;;;;5.45;3.55;;;;;;;;;;6270440;22;20069;-95
2022/04/04 05:21:49;;;;;;;7.25;3.55;;;;;;;;;;6271896;22;20083;-95
2022/04/04 05:24:24;;;;;;;;;;;;;;;;;;6274318;22;20017;-95
2022/04/04 05:26:55;;;;;;;9.82;4.38;;;;;;;;;;6270633;22;20306;-95
2022/04/04 05:29:30;;;;;;;5.38;3.58;;;;;;;;;;6273629;22;20015;-94
2022/04/04 05:32:03;;;;;;;15.27;5.68;;;;;;;;;;6272445;22;20015;-95
2022/04/04 05:34:30;;;;;;;7.57;3.97;;;;;;;;;;6298585;22;20046;-96
2022/04/04 05:37:03;;;;;;;11.82;5.95;;;;;;;;;;6273134;22;20019;-95
2022/04/04 05:39:32;;;;;;;11.52;4.88;;;;;;;;;;6272045;22;20019;-94
2022/04/04 05:41:58;;;;;;;6.43;4.40;;;;;;;;;;6272061;22;20041;-94
2022/04/04 05:44:28;;;;;;;7.70;3.08;;;;;;;;;;6271498;22;20011;-94
2022/04/04 05:47:01;;;;;;;10.13;4.70;;;;;;;;;;6298351;22;20091;-96
2022/04/04 05:49:32;;;;;;;11.93;4.18;;;;;;;;;;6270200;22;20011;-95
2022/04/04 05:52:01;;;;;;;12.93;2.75;;;;;;;;;;6272467;22;20050;-95
2022/04/04 05:54:30;;;;;;;4.68;3.28;;;;;;;;;;6292524;22;20060;-95
2022/04/04 05:56:58;;;;;;;9.30;5.00;;;;;;;;;;6270889;22;20113;-95
2022/04/04 05:59:25;;;;;;;6.70;3.45;;;;;;;;;;6270492;22;20475;-95
2022/04/04 06:02:08;;;;;;;8.40;4.63;;;;;;;;;;6298679;22;20022;-96
2022/04/04 06:04:37;;;;;;;6.72;2.90;;;;;;;;;;6270800;22;20439;-95
2022/04/04 06:07:10;;;;;;;4.45;2.60;;;;;;;;;;6272562;22;20011;-93
2022/04/04 06:09:39;;;;;;;6.90;3.53;;;;;;;;;;6272072;22;20041;-95
2022/04/04 06:12:08;;;;;;;8.23;4.32;;;;;;;;;;6272093;22;20042;-95
2022/04/04 06:14:37;;;;;;;11.52;6.90;;;;;;;;;;6269134;22;20022;-96
2022/04/04 06:17:13;;;;;;;6.22;3.58;;;;;;;;;;6270878;22;20049;-95
2022/04/04 06:19:43;;;;;;;;;;;;;;;;;;6270527;22;20023;-94
2022/04/04 06:22:15;;;;;;;4.65;2.38;;;;;;;;;;6267800;22;19949;-96
2022/04/04 06:24:51;;;;;;;8.75;4.43;;;;;;;;;;6267606;22;20026;-95
2022/04/04 06:27:18;;;;;;;4.03;2.65;;;;;;;;;;6266491;22;20011;-94
2022/04/04 06:29:46;;;;;;;3.80;2.35;;;;;;;;;;6266693;22;20015;-92
2022/04/04 06:32:12;;;;;;;3.40;2.10;;;;;;;;;;6268017;22;20507;-96
2022/04/04 06:34:39;;;;;;;13.73;5.13;;;;;;;;;;6267448;22;20053;-94
2022/04/04 06:37:05;;;;;;;9.38;2.53;;;;;;;;;;6265073;22;20015;-94
2022/04/04 06:39:41;;;;;;;6.00;2.80;;;;;;;;;;6270367;22;20015;-95
2022/04/04 06:42:11;;;;;;;5.43;3.63;;;;;;;;;;6296210;22;20015;-95
2022/04/04 06:44:37;;;;;;;6.30;3.58;;;;;;;;;;6270824;22;20015;-94
2022/04/04 06:47:08;;;;;;;8.20;3.35;;;;;;;;;;6271324;22;20034;-95
2022/04/04 06:49:38;;;;;;;4.97;2.35;;;;;;;;;;6271763;22;20007;-94
2022/04/04 06:52:04;;;;;;;6.28;3.55;;;;;;;;;;6269881;22;20015;-92
2022/04/04 06:54:33;;;;;;;4.82;3.00;;;;;;;;;;6269281;22;20298;-95
2022/04/04 06:57:06;;;;;;;10.32;4.07;;;;;;;;;;6270667;22;20023;-95
2022/04/04 06:59:33;;;;;;;8.60;4.22;;;;;;;;;;6268893;22;20098;-94
2022/04/04 07:02:00;;;;;;;6.43;3.65;;;;;;;;;;6268915;22;20019;-92
2022/04/04 07:04:26;;;;;;;7.68;4.15;;;;;;;;;;6268777;22;20015;-93
2022/04/04 07:06:52;;;;;;;6.32;3.80;;;;;;;;;;6268901;22;20014;-94
2022/04/04 07:09:18;;;;;;;7.13;3.92;;;;;;;;;;6269340;22;20066;-94
2022/04/04 07:11:44;;;;;;;12.18;6.50;;;;;;;;;;6269532;22;20098;-95
2022/04/04 07:14:10;;;;;;;10.80;5.53;;;;;;;;;;6269747;22;20064;-94
2022/04/04 07:16:37;;;;;;;9.35;4.18;;;;;;;;;;6270134;22;20021;-95
2022/04/04 07:19:03;;;;;;;9.10;5.15;;;;;;;;;;6270926;22;20030;-93
2022/04/04 07:21:30;;;;;;;5.75;2.78;;;;;;;;;;6269821;22;20023;-93
2022/04/04 07:23:56;;;;;;;6.72;3.70;;;;;;;;;;6271079;22;20021;-94
2022/04/04 07:26:23;;;;;;;8.48;4.50;;;;;;;;;;6269663;22;20046;-94
2022/04/04 07:28:49;;;;;;;11.65;3.72;;;;;;;;;;6293185;22;20015;-94
2022/04/04 07:31:18;;;;;;;5.78;3.38;;;;;;;;;;6269753;22;20023;-92
2022/04/04 07:33:44;;;;;;;11.68;4.18;;;;;;;;;;6268003;22;20019;-93
2022/04/04 07:36:11;;;;;;;11.30;5.07;;;;;;;;;;6269791;22;20019;-94
2022/04/04 07:38:37;;;;;;;9.50;5.25;;;;;;;;;;6268711;22;20026;-94
2022/04/04 07:41:03;;;;;;;8.68;4.72;;;;;;;;;;6268736;22;20037;-95
2022/04/04 07:43:30;;;;;;;3.13;2.20;;;;;;;;;;6270147;22;20019;-93
2022/04/04 07:45:56;;;;;;;5.70;3.47;;;;;;;;;;6269455;22;20011;-93
2022/04/04 07:48:22;;;;;;;7.95;4.53;;;;;;;;;;6271105;22;20018;-93
2022/04/04 07:50:50;;;;;;;8.60;4.97;;;;;;;;;;6270159;22;20420;-93
2022/04/04 07:53:17;;;;;;;8.43;4.78;;;;;;;;;;6269824;22;20086;-93
2022/04/04 07:55:43;;;;;;;4.72;2.85;;;;;;;;;;6268929;22;20011;-93
2022/04/04 07:58:09;;;;;;;9.82;5.70;;;;;;;;;;6269854;22;20532;-94
2022/04/04 08:00:35;;;;;;;8.70;4.47;;;;;;;;;;6269334;22;20011;-94
2022/04/04 08:03:04;;;;;;;9.40;4.63;;;;;;;;;;6267950;22;20026;-93
2022/04/04 08:05:30;;;;;;;6.32;3.80;;;;;;;;;;6268451;22;20050;-93
2022/04/04 08:07:57;;;;;;;6.28;3.50;;;;;;;;;;6269110;22;20022;-94
2022/04/04 08:10:23;;;;;;;7.50;4.30;;;;;;;;;;6269548;22;20062;-95
2022/04/04 08:12:56;;;;;;;9.15;5.53;;;;;;;;;;6269761;22;20314;-94
2022/04/04 08:15:22;;;;;;;7.93;5.10;;;;;;;;;;6268785;22;20015;-93
2022/04/04 08:17:48;;;;;;;7.38;4.10;;;;;;;;;;6269317;22;20022;-94
2022/04/04 08:20:16;;;;;;;6.07;2.58;;;;;;;;;;6268477;22;20062;-94
2022/04/04 08:22:44;;;;;;;6.43;2.58;;;;;;;;;;6268454;22;20016;-93
2022/04/04 08:25:11;;;;;;;5.82;3.63;;;;;;;;;;6268623;22;20022;-94
2022/04/04 08:27:37;;;;;;;5.32;2.85;;;;;;;;;;6268449;22;20007;-92
2022/04/04 08:30:08;;;;;;;9.05;4.00;;;;;;;;;;6269299;22;20011;-93
2022/04/04 08:32:38;;;;;;;5.40;3.58;;;;;;;;;;6268811;22;20015;-94
2022/04/04 08:35:13;;;;;;;6.22;3.20;;;;;;;;;;6268639;22;20019;-95
2022/04/04 08:37:47;;;;;;;7.10;3.92;;;;;;;;;;6270022;22;20023;-94
2022/04/04 08:40:18;;;;;;;6.78;2.72;;;;;;;;;;6246118;22;20015;-94
2022/04/04 08:42:53;;;;;;;7.47;3.50;;;;;;;;;;6272079;22;20011;-93
2022/04/04 08:45:20;;;;;;;5.13;3.13;;;;;;;;;;6271070;22;20025;-93
2022/04/04 08:47:46;;;;;;;6.72;3.67;;;;;;;;;;6270579;22;20015;-94
2022/04/04 08:50:13;;;;;;;3.80;2.17;;;;;;;;;;6271538;22;20038;-93
2022/04/04 08:52:39;;;;;;;5.68;2.58;;;;;;;;;;6271568;22;20015;-93
2022/04/04 08:55:06;;;;;;;4.78;2.75;;;;;;;;;;6271868;22;20019;-92
2022/04/04 08:57:34;;;;;;;4.88;2.50;;;;;;;;;;6271357;22;20015;-94
2022/04/04 09:00:01;;;;;;;2.75;1.40;;;;;;;;;;6271032;22;20019;-92
2022/04/04 09:02:27;;;;;;;2.80;2.05;;;;;;;;;;6271200;22;20011;-94
2022/04/04 09:05:03;;;;;;;2.78;1.45;;;;;;;;;;6271058;22;20007;-92
2022/04/04 09:07:29;;;;;;;3.17;1.65;;;;;;;;;;6271130;22;20015;-93
2022/04/04 09:09:55;;;;;;;8.02;3.45;;;;;;;;;;6270368;22;20015;-93
2022/04/04 09:12:22;;;;;;;3.88;2.00;;;;;;;;;;6270595;22;20019;-93
2022/04/04 09:14:56;;;;;;;2.95;1.95;;;;;;;;;;6270685;22;20470;-92
2022/04/04 09:17:24;;;;;;;4.45;2.53;;;;;;;;;;6271563;22;20303;-93
2022/04/04 09:19:57;;;;;;;1.63;1.35;;;;;;;;;;6271120;22;20046;-94
2022/04/04 09:22:27;;;;;;;4.40;1.63;;;;;;;;;;6270716;22;20344;-94
2022/04/04 09:25:10;;;;;;;7.43;1.55;;;;;;;;;;6271788;22;20019;-92
2022/04/04 09:27:43;;;;;;;3.38;1.50;;;;;;;;;;6273269;22;20030;-92
2022/04/04 09:30:21;;;;;;;2.88;1.60;;;;;;;;;;6271121;22;20094;-94
2022/04/04 09:33:18;;;;;;;1.48;1.20;;;;;;;;;;6265875;22;20042;-93
2022/04/04 09:35:45;;;;;;;4.30;2.30;;;;;;;;;;6291387;22;20015;-91
2022/04/04 09:38:17;;;;;;;1.88;1.30;;;;;;;;;;6270566;22;20071;-93
2022/04/04 09:40:44;;;;;;;3.88;1.70;;;;;;;;;;6271410;22;20026;-91
2022/04/04 09:43:11;;;;;;;2.75;1.77;;;;;;;;;;6247490;22;20015;-96
2022/04/04 09:45:38;;;;;;;2.00;1.27;;;;;;;;;;6270983;22;20015;-93
2022/04/04 09:48:08;;;;;;;4.72;1.92;;;;;;;;;;6270985;22;20011;-92
2022/04/04 09:50:49;;;;;;;13.88;2.78;;;;;;;;;;6264044;22;20023;-93
2022/04/04 09:53:22;;;;;;;1.15;1.00;;;;;;;;;;6266029;22;20019;-93
2022/04/04 09:55:55;;;;;;;2.78;1.77;;;;;;;;;;6266792;22;20017;-92
2022/04/04 09:58:23;;;;;;;3.28;1.85;;;;;;;;;;6266748;22;20046;-91
2022/04/04 10:00:49;;;;;;;1.65;1.30;;;;;;;;;;6267506;22;20528;-91
2022/04/04 10:03:17;;;;;;;2.95;1.60;;;;;;;;;;6265287;22;20012;-92
2022/04/04 10:05:56;;;;;;;2.78;1.45;;;;;;;;;;6266024;22;20018;-93
2022/04/04 10:08:24;;;;;;;4.78;2.17;;;;;;;;;;6267169;22;20011;-92
2022/04/04 10:10:50;;;;;;;2.85;1.50;;;;;;;;;;6268478;22;20023;-92
2022/04/04 10:13:17;;;;;;;3.28;1.65;;;;;;;;;;6266361;22;20011;-92
2022/04/04 10:15:43;;;;;;;3.92;1.67;;;;;;;;;;6266560;22;20041;-93
2022/04/04 10:18:10;;;;;;;2.83;1.52;;;;;;;;;;6267642;22;20026;-93
2022/04/04 10:20:36;;;;;;;1.75;1.13;;;;;;;;;;6266687;22;20022;-92
2022/04/04 10:23:03;;;;;;;3.08;1.83;;;;;;;;;;6267131;22;20050;-92
2022/04/04 10:25:31;;;;;;;4.57;2.22;;;;;;;;;;6265792;22;20037;-93
2022/04/04 10:27:59;;;;;;;3.22;1.52;;;;;;;;;;6265205;22;20019;-93
2022/04/04 10:30:35;;;;;;;5.07;2.00;;;;;;;;;;6266009;22;20449;-93
2022/04/04 10:33:03;;;;;;;3.85;1.80;;;;;;;;;;6267104;22;20030;-92
2022/04/04 10:35:30;;;;;;;4.18;1.88;;;;;;;;;;6266286;22;20058;-93
2022/04/04 10:38:03;;;;;;;2.47;1.55;;;;;;;;;;6267596;22;20015;-93
2022/04/04 10:40:30;;;;;;;4.30;1.88;;;;;;;;;;6268241;22;20015;-93
2022/04/04 10:43:15;;;;;;;3.67;1.90;;;;;;;;;;6267747;22;20018;-92
2022/04/04 10:46:02;;;;;;;2.50;1.38;;;;;;;;;;6266914;22;20015;-92
2022/04/04 10:48:31;;;;;;;4.80;2.22;;;;;;;;;;6266212;22;20445;-92
2022/04/04 10:51:11;;;;;;;2.53;1.60;;;;;;;;;;6266105;22;20011;-93
2022/04/04 10:53:39;;;;;;;1.25;0.80;;;;;;;;;;6266639;22;20015;-92
2022/04/04 10:56:09;;;;;;;2.35;1.25;;;;;;;;;;6265822;22;20093;-94
2022/04/04 10:58:39;;;;;;;3.75;1.88;;;;;;;;;;6266869;22;20063;-94
2022/04/04 11:01:15;;;;;;;5.28;2.25;;;;;;;;;;6267432;22;20011;-93
2022/04/04 11:03:53;;;;;;;3.60;1.42;;;;;;;;;;6267099;22;20050;-93
2022/04/04 11:09:26;;;;;;;2.78;1.58;;;;;;;;;;6293737;22;20030;-93
2022/04/04 11:11:58;;;;;;;4.40;1.85;;;;;;;;;;6269974;22;20015;-95
2022/04/04 11:14:31;;;;;;;2.67;1.65;;;;;;;;;;6270076;22;20014;-93
2022/04/04 11:17:06;;;;;;;5.38;1.67;;;;;;;;;;6269100;22;20066;-93
2022/04/04 11:19:32;;;;;;;;;;;;;;;;;;6269200;22;20018;-94
2022/04/04 11:21:58;;;;;;;3.20;1.52;;;;;;;;;;6267360;22;19914;-93
2022/04/04 11:24:31;;;;;;;2.33;1.02;;;;;;;;;;6268301;22;20026;-92
2022/04/04 11:26:58;;;;;;;3.20;1.60;;;;;;;;;;6268078;22;20011;-93
2022/04/04 11:29:25;;;;;;;2.17;1.27;;;;;;;;;;6293947;22;20019;-91
2022/04/04 11:31:51;;;;;;;1.33;1.10;;;;;;;;;;6266803;22;20318;-91
2022/04/04 11:34:17;;;;;;;3.20;1.02;;;;;;;;;;6266448;22;20019;-92
2022/04/04 11:36:44;;;;;;;0.88;0.40;;;;;;;;;;6265915;22;20015;-91
2022/04/04 11:39:10;;;;;;;1.75;1.20;;;;;;;;;;6267011;22;20019;-93
2022/04/04 11:41:37;;;;;;;1.30;0.85;;;;;;;;;;6241305;22;20015;-91
2022/04/04 11:44:03;;;;;;;1.67;0.80;;;;;;;;;;6265146;22;20440;-91
2022/04/04 11:46:30;;;;;;;0.75;0.63;;;;;;;;;;6263781;22;20015;-90
2022/04/04 11:48:57;;;;;;;1.33;0.73;;;;;;;;;;6264579;22;20453;-90
2022/04/04 11:51:26;;;;;;;0.95;0.70;;;;;;;;;;6265034;22;20015;-91
2022/04/04 11:54:03;;;;;;;1.08;0.70;;;;;;;;;;6263723;22;20091;-92
2022/04/04 11:56:29;;;;;;;2.40;1.80;;;;;;;;;;6264603;22;20065;-90
2022/04/04 11:59:04;;;;;;;1.30;1.02;;;;;;;;;;6264384;22;20019;-91
2022/04/04 12:01:36;;;;;;;2.83;1.23;;;;;;;;;;6265154;22;20023;-91
2022/04/04 12:04:03;;;;;;;0.55;0.50;;;;;;;;;;6264886;22;20088;-92
2022/04/04 12:06:30;;;;;;;0.80;0.77;;;;;;;;;;6264786;22;20101;-92
2022/04/04 12:09:00;;;;;;;1.95;0.98;;;;;;;;;;6265759;22;20327;-91
2022/04/04 12:11:30;;;;;;;2.42;1.23;;;;;;;;;;6264710;22;20097;-92
2022/04/04 12:13:58;;;;;;;0.80;0.68;;;;;;;;;;6265796;22;20030;-92
2022/04/04 12:16:24;;;;;;;0.43;0.43;;;;;;;;;;6263692;22;20015;-91
2022/04/04 12:19:00;;;;;;;0.85;0.68;;;;;;;;;;6263943;22;20128;-91
2022/04/04 12:21:36;;;;;;;1.20;0.63;;;;;;;;;;6264606;22;20016;-92
2022/04/04 12:26:46;;;;;;;1.27;0.80;;;;;;;;;;6289728;22;20012;-91
2022/04/04 12:29:14;;;;;;;0.40;0.40;;;;;;;;;;6264414;22;20011;-91
2022/04/04 12:31:53;;;;;;;2.67;1.15;;;;;;;;;;6264868;22;20061;-91
2022/04/04 12:34:21;;;;;;;2.10;0.90;;;;;;;;;;6266768;22;20019;-91
2022/04/04 12:36:47;;;;;;;1.13;0.73;;;;;;;;;;6265669;22;20065;-91
2022/04/04 12:39:18;;;;;;;1.23;0.80;;;;;;;;;;6265753;22;20038;-91
2022/04/04 12:41:45;;;;;;;1.15;0.70;;;;;;;;;;6266235;22;20019;-91
2022/04/04 12:44:12;;;;;;;1.00;0.60;;;;;;;;;;6265672;22;20069;-91
2022/04/04 12:46:39;;;;;;;0.98;0.80;;;;;;;;;;6264305;22;20012;-91
2022/04/04 12:49:10;;;;;;;1.20;0.68;;;;;;;;;;6263784;22;20015;-91
2022/04/04 12:51:36;;;;;;;0.40;0.40;;;;;;;;;;6264300;22;20019;-92
2022/04/04 12:54:02;;;;;;;0.80;0.63;;;;;;;;;;6265124;22;20440;-91
2022/04/04 12:56:46;;;;;;;0.85;0.52;;;;;;;;;;6264438;22;20049;-90
2022/04/04 12:59:13;;;;;;;0.45;0.45;;;;;;;;;;6264793;22;20022;-92
2022/04/04 13:01:39;;;;;;;1.17;0.80;;;;;;;;;;6264152;22;20022;-92
2022/04/04 13:04:18;;;;;;;1.80;0.68;;;;;;;;;;6265816;22;20018;-92
2022/04/04 13:06:45;;;;;;;0.85;0.70;;;;;;;;;;6264500;22;20015;-91
2022/04/04 13:09:11;;;;;;;0.90;0.50;;;;;;;;;;6265637;22;20015;-93
2022/04/04 13:11:49;;;;;;;0.55;0.50;;;;;;;;;;6291266;22;20015;-92
2022/04/04 13:14:16;;;;;;;0.50;0.50;;;;;;;;;;6264529;22;20019;-92
2022/04/04 13:16:43;;;;;;;0.80;0.68;;;;;;;;;;6265262;22;20371;-91
2022/04/04 13:19:13;;;;;;;0.60;0.60;;;;;;;;;;6263411;22;20015;-91
2022/04/04 13:21:41;;;;;;;0.52;0.40;;;;;;;;;;6264400;22;20051;-93
2022/04/04 13:24:07;;;;;;;0.85;0.60;;;;;;;;;;6264962;22;20094;-92
2022/04/04 13:26:34;;;;;;;0.55;0.40;;;;;;;;;;6265688;22;20022;-92
2022/04/04 13:29:00;;;;;;;0.73;0.60;;;;;;;;;;6265078;22;20026;-92
2022/04/04 13:31:29;;;;;;;0.55;0.55;;;;;;;;;;6265632;22;20018;-91
2022/04/04 13:34:00;;;;;;;1.02;0.65;;;;;;;;;;6240869;22;20011;-92
2022/04/04 13:36:26;;;;;;;0.50;0.50;;;;;;;;;;6264852;22;20027;-89
2022/04/04 13:38:55;;;;;;;0.82;0.50;;;;;;;;;;6262951;22;20023;-91
2022/04/04 13:41:22;;;;;;;1.08;0.60;;;;;;;;;;6263845;22;20026;-91
2022/04/04 13:43:48;;;;;;;1.25;0.80;;;;;;;;;;6261746;22;20038;-89
2022/04/04 13:46:18;;;;;;;0.50;0.50;;;;;;;;;;6259312;22;20011;-90
2022/04/04 13:48:45;;;;;;;1.67;0.95;;;;;;;;;;6261635;22;20081;-90
2022/04/04 13:51:11;;;;;;;0.98;0.73;;;;;;;;;;6261408;22;20326;-90
2022/04/04 13:53:37;;;;;;;1.30;0.88;;;;;;;;;;6261879;22;20473;-91
2022/04/04 13:56:03;;;;;;;1.33;0.75;;;;;;;;;;6260919;22;20023;-90
2022/04/04 13:58:30;;;;;;;1.02;0.70;;;;;;;;;;6261846;22;20102;-91
2022/04/04 14:00:57;;;;;;;1.13;0.70;;;;;;;;;;6286176;22;20015;-90
2022/04/04 14:03:23;;;;;;;0.77;0.60;;;;;;;;;;6263242;22;20313;-90
2022/04/04 14:05:55;;;;;;;0.85;0.77;;;;;;;;;;6260109;22;20015;-91
2022/04/04 14:08:22;;;;;;;0.50;0.40;;;;;;;;;;6259521;22;20019;-91
2022/04/04 14:10:48;;;;;;;2.33;0.90;;;;;;;;;;6260876;22;20057;-92
2022/04/04 14:13:14;;;;;;;1.13;0.80;;;;;;;;;;6264890;22;20011;-92
2022/04/04 14:15:40;;;;;;;1.60;1.17;;;;;;;;;;6263550;22;20084;-90
2022/04/04 14:18:30;;;;;;;1.42;1.10;;;;;;;;;;6262438;22;20393;-90
2022/04/04 14:20:56;;;;;;;1.17;0.75;;;;;;;;;;6262820;22;20090;-91
2022/04/04 14:23:22;;;;;;;2.20;1.52;;;;;;;;;;6262534;22;20011;-90
2022/04/04 14:25:48;;;;;;;1.67;1.10;;;;;;;;;;6262185;22;20069;-90
2022/04/04 14:28:17;;;;;;;2.72;1.83;;;;;;;;;;6262705;22;20015;-90
2022/04/04 14:30:43;;;;;;;1.80;1.05;;;;;;;;;;6263471;22;20108;-90
2022/04/04 14:33:15;;;;;;;3.55;1.92;;;;;;;;;;6261702;22;20015;-90
2022/04/04 14:35:44;;;;;;;1.98;0.90;;;;;;;;;;6259557;22;20080;-90
2022/04/04 14:38:14;;;;;;;2.10;1.50;;;;;;;;;;6258657;22;20030;-89
2022/04/04 14:40:42;;;;;;;3.35;1.92;;;;;;;;;;6258354;22;20029;-90
2022/04/04 14:43:08;;;;;;;2.40;1.50;;;;;;;;;;6283147;22;20019;-90
2022/04/04 14:45:35;;;;;;;1.50;0.75;;;;;;;;;;6259038;22;20019;-91
2022/04/04 14:48:06;;;;;;;6.13;1.55;;;;;;;;;;6284363;22;20045;-89
2022/04/04 14:50:32;;;;;;;3.65;1.13;;;;;;;;;;6261436;22;20022;-91
2022/04/04 14:52:59;;;;;;;1.00;0.77;;;;;;;;;;6286496;22;20050;-90
2022/04/04 14:55:25;;;;;;;1.52;1.05;;;;;;;;;;6259418;22;20023;-90
2022/04/04 14:57:51;;;;;;;1.75;1.20;;;;;;;;;;6260160;22;20393;-91
2022/04/04 15:00:18;;;;;;;2.72;1.50;;;;;;;;;;6259651;22;20385;-91
2022/04/04 15:02:46;;;;;;;0.93;0.82;;;;;;;;;;6260995;22;20038;-91
2022/04/04 15:05:13;;;;;;;2.25;1.17;;;;;;;;;;6260580;22;20104;-91
2022/04/04 15:07:40;;;;;;;2.25;1.05;;;;;;;;;;6260348;22;20382;-92
2022/04/04 15:10:08;;;;;;;2.17;1.27;;;;;;;;;;6262209;22;20436;-91
2022/04/04 15:12:41;;;;;;;3.63;1.50;;;;;;;;;;6262386;22;20030;-91